Time;durP1;ratioP1;P1;durP2;ratioP2;P2;SDS_P1;SDS_P2;PMS_P1;PMS_P2;Temp;Humidity;BMP_temperature;BMP_pressure;BME280_temperature;BME280_humidity;BME280_pressure;Samples;Min_cycle;Max_cycle;Signal;HPM_P1;HPM_P2
2022/09/16 00:00:33;;;;;;;15.48;7.68;;;;;;;15.74;100.00;97888.94;4499591;31;20103;-77
2022/09/16 00:03:01;;;;;;;14.38;7.72;;;;;;;15.73;100.00;97889.97;4499635;31;20153;-77
2022/09/16 00:05:28;;;;;;;11.25;7.28;;;;;;;15.76;100.00;97905.44;4499646;31;20080;-77
2022/09/16 00:07:55;;;;;;;10.85;6.28;;;;;;;15.74;100.00;97888.16;4485938;31;20111;-77
2022/09/16 00:10:23;;;;;;;9.48;4.80;;;;;;;15.68;100.00;97887.06;4483907;31;20139;-78
2022/09/16 00:12:50;;;;;;;10.55;5.15;;;;;;;15.64;100.00;97899.06;4483753;31;20144;-77
2022/09/16 00:15:17;;;;;;;8.43;4.72;;;;;;;15.62;100.00;97906.31;4483787;31;20431;-77
2022/09/16 00:17:44;;;;;;;10.73;5.00;;;;;;;15.62;100.00;97922.16;4483710;31;20100;-77
2022/09/16 00:20:11;;;;;;;9.55;4.87;;;;;;;15.59;100.00;97907.53;4484180;31;20499;-77
2022/09/16 00:22:38;;;;;;;5.80;4.10;;;;;;;15.52;100.00;97898.75;4484441;31;20156;-77
2022/09/16 00:25:06;;;;;;;6.12;4.60;;;;;;;15.50;100.00;97897.28;4486037;31;20120;-77
2022/09/16 00:27:33;;;;;;;8.27;4.28;;;;;;;15.37;100.00;97898.00;4485766;31;20183;-77
2022/09/16 00:30:00;;;;;;;5.87;3.95;;;;;;;15.32;100.00;97900.38;4486176;31;20108;-77
2022/09/16 00:32:28;;;;;;;6.03;3.78;;;;;;;15.30;100.00;97899.75;4485575;31;20570;-77
2022/09/16 00:34:55;;;;;;;8.68;3.90;;;;;;;15.27;100.00;97895.66;4485860;31;20152;-77
2022/09/16 00:37:22;;;;;;;10.07;3.65;;;;;;;15.21;100.00;97899.06;4485872;31;20347;-77
2022/09/16 00:39:50;;;;;;;8.82;3.47;;;;;;;15.16;100.00;97917.28;4485957;32;20449;-77
2022/09/16 00:42:18;;;;;;;7.43;3.70;;;;;;;15.07;100.00;97912.13;4485875;31;20168;-77
2022/09/16 00:45:01;;;;;;;10.10;3.53;;;;;;;15.00;100.00;97923.59;4485833;31;20093;-77
2022/09/16 00:47:39;;;;;;;4.25;3.50;;;;;;;15.02;100.00;97935.63;4485734;31;20111;-78
2022/09/16 00:50:22;;;;;;;5.68;3.53;;;;;;;15.06;100.00;97946.59;4486003;31;20088;-77
2022/09/16 00:52:50;;;;;;;5.50;4.05;;;;;;;15.07;100.00;97948.25;4485718;31;20176;-77
2022/09/16 00:55:22;;;;;;;8.23;4.03;;;;;;;15.05;100.00;97939.72;4486146;31;20088;-77
2022/09/16 00:57:51;;;;;;;7.18;4.68;;;;;;;14.97;100.00;97924.78;4485610;31;20111;-77
2022/09/16 01:00:18;;;;;;;8.55;4.95;;;;;;;14.93;100.00;97923.53;4484493;32;20568;-77
2022/09/16 01:02:46;;;;;;;8.68;5.28;;;;;;;14.92;100.00;97906.06;4485599;31;20131;-77
2022/09/16 01:05:20;;;;;;;7.82;4.78;;;;;;;14.83;100.00;97901.91;4484273;32;20116;-77
2022/09/16 01:07:48;;;;;;;7.65;5.18;;;;;;;14.75;100.00;97923.09;4496796;31;20097;-77
2022/09/16 01:10:18;;;;;;;7.57;5.20;;;;;;;14.66;100.00;97917.12;4500369;31;20100;-77
2022/09/16 01:12:49;;;;;;;8.65;5.90;;;;;;;14.64;100.00;97925.25;4500518;31;20543;-77
2022/09/16 01:15:16;;;;;;;7.78;5.82;;;;;;;14.57;100.00;97934.84;4501317;31;20408;-77
2022/09/16 01:18:02;;;;;;;10.65;6.53;;;;;;;14.49;100.00;97930.47;4501499;31;20096;-77
2022/09/16 01:20:54;;;;;;;10.43;6.22;;;;;;;14.49;100.00;97932.31;4501522;31;20160;-77
2022/09/16 01:23:52;;;;;;;10.13;5.90;;;;;;;14.49;100.00;97934.94;4501200;31;20159;-77
2022/09/16 01:26:48;;;;;;;8.77;5.60;;;;;;;14.46;100.00;97936.13;4501461;31;20096;-77
2022/09/16 01:29:52;;;;;;;10.70;5.80;;;;;;;14.44;100.00;97934.66;4501234;31;20155;-77
2022/09/16 01:32:27;;;;;;;;;;;;;;;14.39;100.00;97922.03;4501529;31;20114;-77
2022/09/16 01:35:03;;;;;;;;;;;;;;;14.40;100.00;97928.09;4500009;31;19979;-77
2022/09/16 01:37:49;;;;;;;6.93;4.45;;;;;;;14.36;100.00;97928.47;4501400;31;20070;-77
2022/09/16 01:40:22;;;;;;;7.45;4.78;;;;;;;14.40;100.00;97920.19;4501282;31;20520;-76
2022/09/16 01:42:59;;;;;;;8.43;4.43;;;;;;;14.36;100.00;97906.59;4500131;31;20536;-77
2022/09/16 01:45:36;;;;;;;9.52;4.85;;;;;;;14.33;100.00;97915.66;4501197;31;20091;-77
2022/09/16 01:48:27;;;;;;;6.50;4.43;;;;;;;14.34;100.00;97921.78;4499938;31;20110;-76
2022/09/16 01:51:12;;;;;;;7.15;4.35;;;;;;;14.31;100.00;97930.03;4501169;31;20100;-76
2022/09/16 01:53:45;;;;;;;6.40;4.43;;;;;;;14.28;100.00;97936.47;4501572;31;20438;-76
2022/09/16 01:56:24;;;;;;;7.85;4.37;;;;;;;14.24;100.00;97932.56;4501385;31;20613;-76
2022/09/16 01:59:08;;;;;;;6.28;4.43;;;;;;;14.27;100.00;97918.22;4501126;31;20072;-76
2022/09/16 02:01:40;;;;;;;6.70;4.30;;;;;;;14.28;100.00;97922.50;4501049;31;20083;-77
2022/09/16 02:04:14;;;;;;;6.28;4.43;;;;;;;14.21;100.00;97919.75;4499249;31;20164;-76
2022/09/16 02:06:42;;;;;;;;;;;;;;;14.20;100.00;97918.13;4484600;32;20200;-76
2022/09/16 02:09:16;;;;;;;6.53;4.03;;;;;;;14.20;100.00;97923.38;4484158;32;19984;-76
2022/09/16 02:11:45;;;;;;;6.57;3.87;;;;;;;14.21;100.00;97935.56;4484496;32;20097;-76
2022/09/16 02:14:17;;;;;;;7.68;4.78;;;;;;;14.24;100.00;97935.19;4485219;31;20533;-76
2022/09/16 02:16:58;;;;;;;8.90;5.05;;;;;;;14.20;100.00;97939.19;4483965;32;20104;-76
2022/09/16 02:19:36;;;;;;;8.68;5.20;;;;;;;14.14;100.00;97932.00;4484070;32;20084;-77
2022/09/16 02:22:11;;;;;;;8.02;5.35;;;;;;;14.15;100.00;97941.56;4484311;32;20100;-76
2022/09/16 02:24:40;;;;;;;8.38;4.62;;;;;;;14.12;100.00;97950.63;4483931;32;20124;-77
2022/09/16 02:27:11;;;;;;;8.18;5.22;;;;;;;14.10;100.00;97949.19;4484082;32;20093;-76
2022/09/16 02:29:50;;;;;;;7.55;5.28;;;;;;;14.08;100.00;97944.09;4483810;32;20426;-76
2022/09/16 02:32:19;;;;;;;7.70;4.87;;;;;;;14.05;100.00;97946.25;4483949;32;20131;-76
2022/09/16 02:34:48;;;;;;;9.45;5.75;;;;;;;14.01;100.00;97962.44;4483733;32;20122;-76
2022/09/16 02:37:22;;;;;;;10.65;6.18;;;;;;;13.97;100.00;97961.16;4485215;31;20480;-76
2022/09/16 02:39:56;;;;;;;10.63;6.97;;;;;;;13.97;100.00;97958.53;4485169;31;20095;-76
2022/09/16 02:42:24;;;;;;;9.50;6.03;;;;;;;13.99;100.00;97959.16;4484204;32;20101;-76
2022/09/16 02:44:51;;;;;;;12.63;7.20;;;;;;;13.99;100.00;97967.06;4484398;31;20109;-76
2022/09/16 02:47:36;;;;;;;11.80;6.40;;;;;;;14.02;100.00;97958.00;4485152;31;20554;-76
2022/09/16 02:50:11;;;;;;;11.20;7.00;;;;;;;14.06;100.00;97961.06;4485237;31;20096;-76
2022/09/16 02:52:44;;;;;;;11.48;6.62;;;;;;;14.07;100.00;97960.09;4485143;31;20149;-76
2022/09/16 02:55:14;;;;;;;16.03;7.57;;;;;;;14.04;100.00;97965.72;4483600;32;20122;-76
2022/09/16 02:57:41;;;;;;;10.10;6.47;;;;;;;14.07;100.00;97960.09;4484959;31;20244;-77
2022/09/16 03:00:09;;;;;;;11.90;6.62;;;;;;;14.02;100.00;97956.16;4484726;31;20102;-76
2022/09/16 03:02:36;;;;;;;15.73;6.60;;;;;;;13.99;100.00;97959.16;4483491;32;20834;-76
2022/09/16 03:05:04;;;;;;;13.75;7.40;;;;;;;14.00;100.00;97960.81;4490857;31;20103;-76
2022/09/16 03:07:31;;;;;;;11.98;7.30;;;;;;;13.99;100.00;97961.78;4488361;31;20139;-76
2022/09/16 03:09:58;;;;;;;12.98;7.55;;;;;;;13.96;100.00;97966.59;4484981;31;20442;-76
2022/09/16 03:12:44;;;;;;;15.23;7.60;;;;;;;13.98;100.00;97961.97;4483515;32;20092;-76
2022/09/16 03:15:14;;;;;;;12.77;7.32;;;;;;;13.95;100.00;97964.97;4484553;31;20100;-76
2022/09/16 03:17:53;;;;;;;12.05;7.93;;;;;;;13.95;100.00;97963.12;4484636;31;20246;-76
2022/09/16 03:20:26;;;;;;;11.43;7.95;;;;;;;13.87;100.00;97973.75;4483350;32;20107;-76
2022/09/16 03:23:06;;;;;;;12.32;7.87;;;;;;;13.86;100.00;97966.84;4484648;31;20164;-77
2022/09/16 03:25:45;;;;;;;12.85;6.95;;;;;;;13.86;100.00;97968.66;4483287;32;20131;-77
2022/09/16 03:28:34;;;;;;;18.87;8.75;;;;;;;13.83;100.00;97968.00;4483214;32;20129;-77
2022/09/16 03:31:12;;;;;;;14.25;8.23;;;;;;;13.84;100.00;97968.84;4483205;32;20089;-77
2022/09/16 03:33:48;;;;;;;16.45;8.38;;;;;;;13.83;100.00;97964.56;4482996;32;20161;-77
2022/09/16 03:36:19;;;;;;;13.30;8.45;;;;;;;13.81;100.00;97963.94;4484618;31;20084;-77
2022/09/16 03:38:47;;;;;;;14.82;8.90;;;;;;;13.82;100.00;97979.56;4483238;32;20092;-77
2022/09/16 03:41:14;;;;;;;14.48;8.27;;;;;;;13.79;100.00;97979.06;4483020;32;20136;-77
2022/09/16 03:43:56;;;;;;;17.60;8.60;;;;;;;13.78;100.00;97977.47;4484331;31;20138;-77
2022/09/16 03:46:30;;;;;;;13.00;8.65;;;;;;;13.80;100.00;97976.25;4484292;32;20141;-77
2022/09/16 03:48:58;;;;;;;14.65;8.43;;;;;;;13.77;100.00;97986.34;4483026;32;20139;-77
2022/09/16 03:51:25;;;;;;;17.87;9.48;;;;;;;13.78;100.00;97982.72;4484046;31;20397;-77
2022/09/16 03:53:52;;;;;;;17.70;9.65;;;;;;;13.75;100.00;97972.53;4484344;31;20084;-77
2022/09/16 03:56:22;;;;;;;14.75;8.85;;;;;;;13.72;100.00;97980.81;4483977;31;20155;-77
2022/09/16 03:58:49;;;;;;;16.58;9.20;;;;;;;13.72;100.00;97978.16;4485671;31;20152;-77
2022/09/16 04:01:16;;;;;;;18.80;9.30;;;;;;;13.66;100.00;97990.22;4486027;31;20114;-77
2022/09/16 04:03:44;;;;;;;15.57;10.13;;;;;;;13.69;100.00;97989.84;4485540;31;20095;-77
2022/09/16 04:06:11;;;;;;;14.30;8.50;;;;;;;13.70;100.00;97995.94;4487868;31;20565;-75
2022/09/16 04:08:38;;;;;;;15.32;9.27;;;;;;;13.71;100.00;97997.56;4501612;31;20535;-75
2022/09/16 04:11:06;;;;;;;12.50;8.35;;;;;;;13.70;100.00;97988.03;4501299;31;20100;-75
2022/09/16 04:13:34;;;;;;;13.02;8.52;;;;;;;13.66;100.00;97980.50;4501376;31;20092;-75
2022/09/16 04:16:02;;;;;;;13.68;8.38;;;;;;;13.73;100.00;97987.69;4501781;31;20138;-75
2022/09/16 04:18:31;;;;;;;12.60;8.02;;;;;;;13.66;100.00;97984.94;4501821;31;20114;-75
2022/09/16 04:20:59;;;;;;;14.32;8.27;;;;;;;13.66;100.00;97992.84;4501768;31;20497;-75
2022/09/16 04:23:27;;;;;;;15.90;8.68;;;;;;;13.63;100.00;98001.09;4501618;31;20154;-75
2022/09/16 04:25:59;;;;;;;17.60;8.90;;;;;;;13.65;100.00;97993.81;4501689;31;20524;-75
2022/09/16 04:28:26;;;;;;;13.10;7.95;;;;;;;13.61;100.00;97993.38;4501802;31;20158;-75
2022/09/16 04:31:01;;;;;;;14.93;9.10;;;;;;;13.64;100.00;97994.81;4501349;31;20112;-75
2022/09/16 04:33:30;;;;;;;10.88;7.50;;;;;;;13.63;100.00;97991.38;4501651;31;20080;-75
2022/09/16 04:36:11;;;;;;;14.13;8.40;;;;;;;13.64;100.00;98000.06;4501658;31;20126;-75
2022/09/16 04:38:40;;;;;;;15.10;8.40;;;;;;;13.65;100.00;97999.09;4501051;31;20517;-75
2022/09/16 04:41:10;;;;;;;15.23;8.63;;;;;;;13.60;100.00;97997.00;4501800;31;20193;-75
2022/09/16 04:43:37;;;;;;;17.12;10.15;;;;;;;13.60;100.00;98002.25;4501461;31;20092;-75
2022/09/16 04:46:05;;;;;;;11.70;7.72;;;;;;;13.60;100.00;98002.25;4501197;31;20151;-75
2022/09/16 04:48:33;;;;;;;17.55;8.95;;;;;;;13.60;100.00;97997.00;4501659;31;20201;-75
2022/09/16 04:51:03;;;;;;;13.13;8.70;;;;;;;13.52;100.00;98002.31;4501500;31;20145;-75
2022/09/16 04:53:31;;;;;;;17.08;8.88;;;;;;;13.60;100.00;97999.62;4500346;31;20110;-75
2022/09/16 04:56:14;;;;;;;12.93;8.43;;;;;;;13.59;100.00;98005.88;4501308;31;20146;-75
2022/09/16 04:58:42;;;;;;;14.23;8.07;;;;;;;13.62;100.00;98008.16;4500447;31;20088;-74
2022/09/16 05:01:11;;;;;;;13.98;8.20;;;;;;;13.64;100.00;98008.81;4479350;31;20124;-74
2022/09/16 05:03:39;;;;;;;15.43;8.05;;;;;;;13.68;100.00;98000.56;4484362;31;20096;-75
2022/09/16 05:06:09;;;;;;;11.73;7.75;;;;;;;13.70;100.00;97995.94;4497022;31;20091;-75
2022/09/16 05:08:36;;;;;;;11.65;7.72;;;;;;;13.72;100.00;98007.13;4488604;31;20105;-75
2022/09/16 05:11:08;;;;;;;11.65;7.70;;;;;;;13.85;100.00;98002.06;4500317;31;20096;-75
2022/09/16 05:13:36;;;;;;;15.10;7.37;;;;;;;13.85;100.00;98004.69;4485517;31;20108;-75
2022/09/16 05:16:09;;;;;;;10.77;6.53;;;;;;;13.89;100.00;98010.44;4481774;31;20127;-75
2022/09/16 05:18:38;;;;;;;14.50;8.30;;;;;;;13.90;100.00;98012.06;4498148;31;20174;-74
2022/09/16 05:21:08;;;;;;;18.92;8.25;;;;;;;13.94;100.00;98014.16;4483783;31;20176;-74
2022/09/16 05:23:36;;;;;;;13.88;7.28;;;;;;;13.96;100.00;98019.25;4495911;31;20114;-74
2022/09/16 05:26:24;;;;;;;10.70;7.03;;;;;;;14.00;100.00;98031.91;4497024;31;20168;-74
2022/09/16 05:28:52;;;;;;;13.77;7.70;;;;;;;13.99;100.00;98021.56;4493474;31;20143;-74
2022/09/16 05:31:27;;;;;;;13.07;7.25;;;;;;;14.02;100.00;98026.47;4484948;31;20105;-75
2022/09/16 05:34:15;;;;;;;12.13;7.22;;;;;;;14.06;100.00;98040.91;4491764;31;20767;-74
2022/09/16 05:36:43;;;;;;;14.10;7.15;;;;;;;14.05;100.00;98036.66;4488000;31;20167;-74
2022/09/16 05:39:10;;;;;;;14.50;8.07;;;;;;;14.22;100.00;98026.78;4493884;31;20130;-74
2022/09/16 05:41:55;;;;;;;12.48;7.15;;;;;;;14.19;100.00;98032.41;4487148;31;20600;-76
2022/09/16 05:44:23;;;;;;;15.68;8.82;;;;;;;14.27;100.00;98037.59;4491142;31;20100;-77
2022/09/16 05:46:50;;;;;;;12.65;8.13;;;;;;;14.25;100.00;98036.16;4490257;31;20140;-77
2022/09/16 05:49:19;;;;;;;13.65;7.55;;;;;;;14.13;100.00;98027.84;4497910;31;20480;-76
2022/09/16 05:51:47;;;;;;;15.13;7.50;;;;;;;14.23;100.00;98028.44;4496968;31;20114;-76
2022/09/16 05:54:17;;;;;;;13.25;7.95;;;;;;;14.35;100.00;98026.16;4498447;31;20231;-75
2022/09/16 05:56:45;;;;;;;10.95;7.15;;;;;;;14.36;100.00;98022.53;4492196;31;20135;-76
2022/09/16 05:59:14;;;;;;;14.55;7.90;;;;;;;14.36;100.00;98028.59;4492048;31;20457;-76
2022/09/16 06:01:41;;;;;;;14.18;7.72;;;;;;;14.40;100.00;98023.81;4488317;31;20180;-76
2022/09/16 06:04:10;;;;;;;12.75;6.75;;;;;;;14.52;100.00;98032.09;4486967;31;20572;-77
2022/09/16 06:06:42;;;;;;;12.20;7.55;;;;;;;14.52;100.00;98043.44;4485738;31;164522;-76
2022/09/16 06:09:17;;;;;;;14.43;7.68;;;;;;;14.60;100.00;98034.63;4492124;31;20091;-76
2022/09/16 06:11:46;;;;;;;11.20;7.80;;;;;;;14.67;100.00;98032.94;4495767;31;20092;-76
2022/09/16 06:14:14;;;;;;;14.23;6.90;;;;;;;14.78;100.00;98036.13;4494998;31;20262;-75
2022/09/16 06:16:42;;;;;;;13.43;7.25;;;;;;;14.87;100.00;98035.03;4493884;31;20143;-75
2022/09/16 06:19:12;;;;;;;12.80;7.12;;;;;;;14.93;100.00;98041.38;4493262;31;20096;-75
2022/09/16 06:21:40;;;;;;;10.82;6.55;;;;;;;14.95;100.00;98023.56;4495564;31;20084;-76
2022/09/16 06:24:08;;;;;;;12.65;5.93;;;;;;;14.92;100.00;98026.59;4485896;31;20156;-76
2022/09/16 06:26:37;;;;;;;12.18;7.03;;;;;;;14.90;100.00;98029.41;4491329;31;20445;-76
2022/09/16 06:29:05;;;;;;;12.23;6.65;;;;;;;14.88;100.00;98037.50;4493538;31;20725;-76
2022/09/16 06:31:33;;;;;;;10.55;6.70;;;;;;;14.91;100.00;98028.38;4498433;31;20116;-75
2022/09/16 06:34:00;;;;;;;10.35;7.22;;;;;;;14.93;100.00;98022.91;4498441;31;20112;-75
2022/09/16 06:36:32;;;;;;;11.63;7.25;;;;;;;15.00;100.00;98027.28;4498446;31;20100;-74
2022/09/16 06:38:59;;;;;;;15.55;7.18;;;;;;;14.93;100.00;98034.31;4488092;31;20402;-74
2022/09/16 06:41:27;;;;;;;10.35;6.78;;;;;;;14.99;100.00;98036.22;4491367;31;20092;-74
2022/09/16 06:43:54;;;;;;;14.02;7.72;;;;;;;15.14;100.00;98038.84;4499616;31;20156;-73
2022/09/16 06:46:23;;;;;;;11.02;7.28;;;;;;;15.34;100.00;98046.97;4492891;31;20091;-74
2022/09/16 06:48:55;;;;;;;14.45;7.43;;;;;;;15.48;100.00;98042.66;4493791;31;20108;-72
2022/09/16 06:51:28;;;;;;;14.10;7.20;;;;;;;15.64;100.00;98036.34;4489161;31;20092;-74
2022/09/16 06:54:00;;;;;;;9.77;6.78;;;;;;;15.69;100.00;98039.22;4497587;31;20096;-74
2022/09/16 06:56:27;;;;;;;9.82;6.87;;;;;;;15.67;100.00;98037.78;4489094;31;20098;-75
2022/09/16 06:58:57;;;;;;;10.70;7.20;;;;;;;15.89;100.00;98049.19;4495232;31;20155;-76
2022/09/16 07:01:29;;;;;;;12.35;6.47;;;;;;;15.88;100.00;98050.19;4495703;31;20480;-75
2022/09/16 07:03:57;;;;;;;10.07;6.05;;;;;;;16.00;100.00;98053.97;4491746;31;20096;-74
2022/09/16 07:06:28;;;;;;;12.30;6.72;;;;;;;15.96;100.00;98052.72;4495639;31;20200;-75
2022/09/16 07:09:15;;;;;;;10.75;6.25;;;;;;;15.88;100.00;98052.84;4492553;31;20083;-75
2022/09/16 07:11:43;;;;;;;14.35;6.00;;;;;;;15.77;100.00;98057.59;4492831;31;20108;-76
2022/09/16 07:14:10;;;;;;;12.85;6.43;;;;;;;15.59;100.00;98051.91;4493253;31;20140;-75
2022/09/16 07:16:37;;;;;;;11.50;6.37;;;;;;;15.68;100.00;98057.91;4494959;31;20484;-74
2022/09/16 07:19:04;;;;;;;7.87;5.95;;;;;;;15.68;100.00;98057.91;4491586;31;20107;-75
2022/09/16 07:21:31;;;;;;;9.52;5.70;;;;;;;15.69;100.00;98062.19;4492660;31;20108;-75
2022/09/16 07:24:01;;;;;;;11.60;5.25;;;;;;;15.58;100.00;98058.22;4493728;31;20116;-77
2022/09/16 07:26:33;;;;;;;10.73;5.95;;;;;;;15.49;100.00;98059.31;4488604;31;20112;-76
2022/09/16 07:29:02;;;;;;;7.07;5.10;;;;;;;15.48;100.00;98068.25;4482924;31;20110;-74
2022/09/16 07:31:32;;;;;;;8.25;6.10;;;;;;;15.64;100.00;98068.03;4490031;31;20127;-73
2022/09/16 07:34:00;;;;;;;9.52;5.72;;;;;;;15.83;100.00;98071.91;4495542;31;20188;-73
2022/09/16 07:36:33;;;;;;;8.25;5.68;;;;;;;15.86;100.00;98060.94;4496146;31;20099;-72
2022/09/16 07:39:00;;;;;;;7.45;5.10;;;;;;;15.72;100.00;98064.44;4494338;31;20091;-75
2022/09/16 07:41:29;;;;;;;7.18;5.35;;;;;;;15.65;100.00;98074.13;4498373;31;20125;-74
2022/09/16 07:43:58;;;;;;;11.18;5.65;;;;;;;15.48;100.00;98079.63;4492276;31;20127;-75
2022/09/16 07:46:27;;;;;;;10.30;6.32;;;;;;;15.64;100.00;98081.22;4496709;31;20080;-75
2022/09/16 07:48:54;;;;;;;11.23;5.43;;;;;;;15.87;100.00;98085.56;4492190;31;20100;-73
2022/09/16 07:51:23;;;;;;;10.88;5.80;;;;;;;15.89;100.00;98089.63;4495058;31;20135;-75
2022/09/16 07:53:55;;;;;;;8.18;5.43;;;;;;;15.91;100.00;98090.28;4491970;31;20104;-75
2022/09/16 07:56:24;;;;;;;8.32;5.47;;;;;;;15.96;100.00;98092.34;4493147;31;20096;-76
2022/09/16 07:58:53;;;;;;;12.45;5.40;;;;;;;16.00;100.00;98093.59;4493285;31;20091;-77
2022/09/16 08:01:20;;;;;;;6.43;4.78;;;;;;;15.91;100.00;98095.56;4488652;31;20119;-77
2022/09/16 08:03:51;;;;;;;7.87;4.68;;;;;;;15.90;100.00;98098.41;4489522;31;20127;-76
2022/09/16 08:06:27;;;;;;;9.18;4.90;;;;;;;16.01;100.00;98102.34;4499709;31;20144;-76
2022/09/16 08:08:56;;;;;;;7.70;5.05;;;;;;;16.21;100.00;98111.28;4494496;31;20535;-76
2022/09/16 08:11:31;;;;;;;10.20;5.18;;;;;;;16.09;100.00;98103.06;4487731;31;20175;-75
2022/09/16 08:13:59;;;;;;;6.90;4.87;;;;;;;16.08;100.00;98100.59;4495123;31;20146;-76
2022/09/16 08:16:27;;;;;;;8.30;4.90;;;;;;;16.01;100.00;98105.81;4492818;31;20219;-76
2022/09/16 08:18:55;;;;;;;9.90;5.15;;;;;;;16.01;100.00;98108.44;4491097;31;20108;-77
2022/09/16 08:21:25;;;;;;;8.23;4.18;;;;;;;16.04;100.00;98105.44;4493218;31;20161;-78
2022/09/16 08:23:53;;;;;;;5.57;4.30;;;;;;;16.01;100.00;98097.88;4487763;31;20178;-76
2022/09/16 08:26:21;;;;;;;8.07;4.35;;;;;;;15.93;100.00;98085.63;4493323;31;20096;-75
2022/09/16 08:28:49;;;;;;;8.38;4.60;;;;;;;16.04;100.00;98089.56;4491872;31;20119;-74
2022/09/16 08:31:35;;;;;;;5.55;4.18;;;;;;;16.01;100.00;98097.88;4483789;31;20107;-77
2022/09/16 08:34:03;;;;;;;8.20;3.87;;;;;;;16.20;100.00;98103.53;4491540;31;20176;-77
2022/09/16 08:36:32;;;;;;;6.00;3.72;;;;;;;16.18;100.00;98102.91;4495180;31;20121;-77
2022/09/16 08:38:59;;;;;;;5.85;4.00;;;;;;;15.96;100.00;98106.38;4493214;31;20103;-76
2022/09/16 08:42:04;;;;;;;5.00;4.10;;;;;;;16.09;100.00;98105.69;4495102;31;20139;-77
2022/09/16 08:44:49;;;;;;;6.95;4.35;;;;;;;16.01;100.00;98097.88;4482718;31;20142;-76
2022/09/16 08:47:41;;;;;;;9.63;4.07;;;;;;;15.78;100.00;98101.50;4490899;31;20125;-76
2022/09/16 08:50:22;;;;;;;5.22;4.00;;;;;;;15.90;100.00;98090.47;4492517;31;20154;-77
2022/09/16 08:52:50;;;;;;;11.38;4.47;;;;;;;15.92;100.00;98099.00;4493981;31;20319;-77
2022/09/16 08:55:24;;;;;;;7.78;3.90;;;;;;;15.89;100.00;98109.97;4487053;31;20518;-76
2022/09/16 08:58:06;;;;;;;5.12;3.30;;;;;;;15.81;100.00;98118.81;4495100;31;20092;-76
2022/09/16 09:00:33;;;;;;;7.37;3.75;;;;;;;15.81;100.00;98118.81;4494096;31;20130;-76
2022/09/16 09:03:35;;;;;;;7.78;3.72;;;;;;;15.88;100.00;98124.16;4496079;31;20095;-76
2022/09/16 09:06:21;;;;;;;5.97;3.55;;;;;;;16.09;100.00;98118.06;4428141;32;20185;-76
2022/09/16 09:08:51;;;;;;;7.15;4.12;;;;;;;16.16;100.00;98112.88;4431909;32;20489;-75
2022/09/16 09:11:44;;;;;;;8.30;4.18;;;;;;;16.06;100.00;98113.16;4435078;32;20134;-76
2022/09/16 09:14:31;;;;;;;7.57;4.10;;;;;;;15.95;100.00;98111.84;4428522;32;20105;-76
2022/09/16 09:17:28;;;;;;;5.07;3.70;;;;;;;15.90;100.00;98101.03;4433838;32;20133;-75
2022/09/16 09:20:26;;;;;;;6.72;3.47;;;;;;;15.93;100.00;98100.66;4434152;32;20093;-77
2022/09/16 09:23:05;;;;;;;5.47;3.90;;;;;;;15.70;100.00;98098.97;4433314;32;20093;-79
2022/09/16 09:25:42;;;;;;;7.25;4.85;;;;;;;15.85;100.00;98091.03;4432887;32;20213;-74
2022/09/16 09:28:33;;;;;;;6.70;4.87;;;;;;;16.01;100.00;98089.97;4420594;32;20121;-76
2022/09/16 09:31:08;;;;;;;6.53;3.60;;;;;;;16.03;100.00;98097.69;4429752;32;20129;-75
2022/09/16 09:33:55;;;;;;;8.32;3.65;;;;;;;16.20;100.00;98093.81;4422682;32;20165;-74
2022/09/16 09:36:44;;;;;;;9.63;3.95;;;;;;;16.32;100.00;98096.72;4411100;32;20198;-77
2022/09/16 09:39:16;;;;;;;5.25;3.80;;;;;;;16.01;100.00;98097.88;4413538;32;20599;-79
2022/09/16 09:41:50;;;;;;;7.43;3.10;;;;;;;16.37;100.00;98098.81;4428260;32;20139;-75
2022/09/16 09:44:20;;;;;;;7.20;3.72;;;;;;;16.54;100.00;98109.94;4490907;31;20076;-76
2022/09/16 09:46:52;;;;;;;5.93;3.85;;;;;;;16.84;100.00;98111.34;4496644;31;20130;-78
2022/09/16 09:49:30;;;;;;;7.07;3.25;;;;;;;16.82;100.00;98113.41;4498049;31;20100;-78
2022/09/16 09:52:07;;;;;;;7.15;3.33;;;;;;;17.02;100.00;98096.84;4497487;31;20574;-76
2022/09/16 09:54:35;;;;;;;8.88;3.90;;;;;;;16.90;100.00;98093.13;4487619;31;20134;-75
2022/09/16 09:57:12;;;;;;;6.72;2.72;;;;;;;17.23;97.93;98095.13;4490506;31;20440;-78
2022/09/16 10:00:05;;;;;;;4.95;2.97;;;;;;;17.27;90.64;98081.28;4487690;31;20556;-78
2022/09/16 10:02:42;;;;;;;5.12;2.72;;;;;;;17.48;90.52;98074.25;4487615;31;20133;-77
2022/09/16 10:05:24;;;;;;;10.93;2.70;;;;;;;17.52;88.67;98078.13;4489520;31;20143;-78
2022/09/16 10:07:54;;;;;;;6.30;2.28;;;;;;;17.66;87.89;98079.00;4496676;31;20088;-80
2022/09/16 10:10:24;;;;;;;6.68;2.85;;;;;;;17.60;90.86;98082.44;4489939;31;20137;-79
2022/09/16 10:12:51;;;;;;;6.37;2.45;;;;;;;17.93;90.33;98098.44;4497237;31;20159;-79
2022/09/16 10:15:25;;;;;;;3.75;2.00;;;;;;;18.08;84.53;98098.28;4493004;31;20125;-77
2022/09/16 10:17:53;;;;;;;3.45;2.20;;;;;;;18.17;85.35;98093.56;4493936;31;20115;-77
2022/09/16 10:20:23;;;;;;;3.87;2.30;;;;;;;18.12;84.87;98090.72;4496159;31;20121;-77
2022/09/16 10:22:58;;;;;;;3.70;2.30;;;;;;;17.95;82.50;98085.00;4487994;31;20144;-80
2022/09/16 10:25:26;;;;;;;4.30;2.55;;;;;;;18.05;83.64;98090.72;4491180;31;20111;-78
2022/09/16 10:27:55;;;;;;;10.32;4.25;;;;;;;18.05;85.36;98093.38;4496387;31;20114;-75
2022/09/16 10:30:22;;;;;;;4.72;3.05;;;;;;;17.90;81.34;98094.34;4496361;31;20126;-77
2022/09/16 10:33:05;;;;;;;5.90;2.80;;;;;;;17.92;83.15;98091.50;4494004;31;20095;-78
2022/09/16 10:35:34;;;;;;;5.32;2.62;;;;;;;17.96;86.88;98087.44;4496603;31;20179;-79
2022/09/16 10:38:05;;;;;;;4.82;2.67;;;;;;;18.04;81.68;98081.94;4484588;31;20438;-78
2022/09/16 10:40:33;;;;;;;5.20;2.78;;;;;;;18.03;86.76;98090.09;4498989;31;20095;-78
2022/09/16 10:43:03;;;;;;;10.75;3.00;;;;;;;18.05;86.53;98080.13;4493110;31;20091;-78
2022/09/16 10:45:34;;;;;;;4.55;2.35;;;;;;;18.15;87.69;98085.00;4489496;31;20123;-78
2022/09/16 10:48:07;;;;;;;6.50;3.10;;;;;;;18.21;87.24;98085.03;4491437;31;20092;-77
2022/09/16 10:50:34;;;;;;;5.03;2.92;;;;;;;18.07;86.69;98083.38;4489068;31;20171;-76
2022/09/16 10:53:01;;;;;;;4.47;3.35;;;;;;;18.06;84.66;98092.34;4497146;31;20108;-77
2022/09/16 10:55:37;;;;;;;3.70;2.33;;;;;;;18.12;88.01;98096.03;4497762;31;20108;-76
2022/09/16 10:58:16;;;;;;;7.85;3.17;;;;;;;18.27;85.80;98099.28;4486413;31;20092;-76
2022/09/16 11:01:02;;;;;;;6.68;2.97;;;;;;;18.31;84.00;98091.75;4493149;31;20095;-76
2022/09/16 11:03:44;;;;;;;4.65;3.20;;;;;;;18.45;85.47;98101.34;4495252;31;20099;-76
2022/09/16 11:06:23;;;;;;;6.43;2.62;;;;;;;18.54;81.40;98104.59;4487485;31;20139;-76
2022/09/16 11:09:03;;;;;;;3.85;2.50;;;;;;;18.59;86.11;98095.03;4492654;31;20119;-76
2022/09/16 11:11:56;;;;;;;4.32;2.25;;;;;;;18.89;85.50;98102.53;4496662;31;20092;-76
2022/09/16 11:14:42;;;;;;;5.00;2.40;;;;;;;19.31;78.30;98096.94;4493669;31;20122;-75
2022/09/16 11:17:31;;;;;;;6.15;2.30;;;;;;;19.07;73.21;98093.13;4486851;31;20160;-75
2022/09/16 11:20:32;;;;;;;4.45;1.85;;;;;;;19.29;75.01;98091.84;4487279;31;20201;-76
2022/09/16 11:23:17;;;;;;;5.82;2.00;;;;;;;19.25;72.95;98090.59;4489342;31;20596;-75
2022/09/16 11:25:52;;;;;;;4.62;2.65;;;;;;;19.40;74.61;98076.28;4494985;31;20099;-76
2022/09/16 11:28:25;;;;;;;3.65;2.05;;;;;;;19.60;73.42;98060.22;4498811;31;20138;-76
2022/09/16 11:31:15;;;;;;;4.68;2.17;;;;;;;19.75;75.38;98073.22;4497486;31;20631;-74
2022/09/16 11:33:45;;;;;;;6.35;1.80;;;;;;;19.88;71.23;98072.34;4497809;31;20115;-76
2022/09/16 11:36:20;;;;;;;3.30;1.92;;;;;;;19.91;68.92;98074.56;4496074;31;20141;-75
2022/09/16 11:39:08;;;;;;;6.68;1.92;;;;;;;20.44;70.72;98070.69;4499467;31;20101;-75
2022/09/16 11:41:39;;;;;;;3.95;1.62;;;;;;;20.54;67.08;98066.50;4490635;31;20443;-76
2022/09/16 11:44:25;;;;;;;3.95;1.75;;;;;;;20.16;67.49;98058.66;4499595;31;20153;-76
2022/09/16 11:47:11;;;;;;;2.00;1.60;;;;;;;20.32;67.29;98065.31;4499511;31;20084;-76
2022/09/16 11:49:50;;;;;;;2.92;1.60;;;;;;;20.62;66.45;98054.78;4499409;31;20147;-75
2022/09/16 11:52:37;;;;;;;2.92;1.40;;;;;;;20.17;63.82;98060.31;4497054;31;20092;-76